Time;durP1;ratioP1;P1;durP2;ratioP2;P2;SDS_P1;SDS_P2;PMS_P1;PMS_P2;Temp;Humidity;BMP_temperature;BMP_pressure;BME280_temperature;BME280_humidity;BME280_pressure;Samples;Min_cycle;Max_cycle;Signal;HPM_P1;HPM_P2
2022/03/22 00:02:05;;;;;;;68.00;30.80;;;;;;;;;;4980777;28;20053;-85
2022/03/22 00:04:31;;;;;;;58.85;28.10;;;;;;;;;;5001636;28;20431;-86
2022/03/22 00:06:57;;;;;;;58.90;28.40;;;;;;;;;;4976621;28;20034;-86
2022/03/22 00:09:23;;;;;;;58.55;28.38;;;;;;;;;;4995650;28;20477;-85
2022/03/22 00:11:50;;;;;;;63.67;29.08;;;;;;;;;;4981390;28;20462;-85
2022/03/22 00:14:23;;;;;;;63.50;31.02;;;;;;;;;;4981360;28;20034;-85
2022/03/22 00:16:49;;;;;;;65.30;30.15;;;;;;;;;;4981021;28;20030;-85
2022/03/22 00:19:16;;;;;;;61.67;30.17;;;;;;;;;;4996253;28;20776;-85
2022/03/22 00:21:42;;;;;;;59.15;29.77;;;;;;;;;;5000355;28;20361;-85
2022/03/22 00:24:08;;;;;;;69.47;31.15;;;;;;;;;;4999175;28;20057;-85
2022/03/22 00:26:34;;;;;;;63.80;30.05;;;;;;;;;;4992371;28;20473;-85
2022/03/22 00:29:02;;;;;;;60.55;29.45;;;;;;;;;;4984592;28;20445;-85
2022/03/22 00:31:28;;;;;;;64.22;30.27;;;;;;;;;;4979971;28;20557;-86
2022/03/22 00:33:54;;;;;;;65.65;28.88;;;;;;;;;;4985049;28;20797;-85
2022/03/22 00:36:20;;;;;;;61.53;30.02;;;;;;;;;;4983771;28;20553;-85
2022/03/22 00:38:46;;;;;;;61.10;29.27;;;;;;;;;;4981997;28;20124;-85
2022/03/22 00:41:13;;;;;;;66.68;30.77;;;;;;;;;;4984103;28;20081;-86
2022/03/22 00:43:40;;;;;;;66.57;29.00;;;;;;;;;;4983115;28;20057;-85
2022/03/22 00:46:06;;;;;;;61.83;30.83;;;;;;;;;;4999343;28;20057;-85
2022/03/22 00:48:33;;;;;;;63.45;29.77;;;;;;;;;;4981957;28;20115;-85
2022/03/22 00:50:59;;;;;;;63.63;29.83;;;;;;;;;;4996942;28;20117;-85
2022/03/22 00:53:25;;;;;;;68.55;30.63;;;;;;;;;;4980811;28;20125;-85
2022/03/22 00:55:51;;;;;;;66.22;30.67;;;;;;;;;;5002453;28;20041;-85
2022/03/22 00:58:18;;;;;;;66.63;31.45;;;;;;;;;;4987316;28;20096;-86
2022/03/22 01:00:44;;;;;;;77.30;31.48;;;;;;;;;;4985588;28;20185;-85
2022/03/22 01:03:10;;;;;;;60.75;30.33;;;;;;;;;;5006255;28;20037;-86
2022/03/22 01:05:37;;;;;;;64.90;29.95;;;;;;;;;;4988941;28;20037;-85
2022/03/22 01:08:08;;;;;;;62.35;30.52;;;;;;;;;;4989642;28;20095;-85
2022/03/22 01:10:35;;;;;;;70.90;28.90;;;;;;;;;;4986740;28;20576;-85
2022/03/22 01:13:01;;;;;;;68.65;31.90;;;;;;;;;;4997841;28;20037;-85
2022/03/22 01:15:32;;;;;;;61.13;29.40;;;;;;;;;;4985859;28;20037;-85
2022/03/22 01:17:59;;;;;;;71.30;31.42;;;;;;;;;;4984733;28;20030;-85
2022/03/22 01:20:26;;;;;;;70.55;30.67;;;;;;;;;;5003481;28;20030;-86
2022/03/22 01:22:52;;;;;;;62.95;30.30;;;;;;;;;;4988036;28;20041;-86
2022/03/22 01:25:23;;;;;;;70.22;30.50;;;;;;;;;;5003380;28;20270;-85
2022/03/22 01:27:50;;;;;;;59.70;30.58;;;;;;;;;;4983951;28;20041;-85
2022/03/22 01:30:19;;;;;;;60.55;30.13;;;;;;;;;;4981730;28;20730;-85
2022/03/22 01:32:45;;;;;;;68.65;31.52;;;;;;;;;;4989546;28;20038;-85
2022/03/22 01:35:11;;;;;;;67.38;31.58;;;;;;;;;;4999446;28;20030;-85
2022/03/22 01:37:38;;;;;;;71.15;32.92;;;;;;;;;;5002551;28;20080;-85
2022/03/22 01:40:06;;;;;;;66.95;31.30;;;;;;;;;;4990287;28;20129;-86
2022/03/22 01:42:32;;;;;;;62.97;29.30;;;;;;;;;;4986046;28;20037;-85
2022/03/22 01:44:58;;;;;;;68.70;32.45;;;;;;;;;;4986863;28;20453;-85
2022/03/22 01:47:25;;;;;;;69.53;32.72;;;;;;;;;;4986313;28;20034;-85
2022/03/22 01:49:51;;;;;;;63.17;30.23;;;;;;;;;;4986052;28;20034;-85
2022/03/22 01:52:20;;;;;;;71.80;32.13;;;;;;;;;;5002265;28;20022;-86
2022/03/22 01:54:47;;;;;;;70.22;30.55;;;;;;;;;;4982621;28;20021;-85
2022/03/22 01:57:13;;;;;;;70.20;31.48;;;;;;;;;;4998762;28;20023;-85
2022/03/22 01:59:40;;;;;;;70.57;32.35;;;;;;;;;;4986520;28;20473;-86
2022/03/22 02:07:37;;;;;;;59.47;29.13;;;;;;;;;;5000802;28;20154;-86
2022/03/22 02:10:10;;;;;;;62.58;30.65;;;;;;;;;;5000983;28;20061;-85
2022/03/22 02:12:44;;;;;;;74.55;31.05;;;;;;;;;;4998576;28;20120;-85
2022/03/22 02:15:11;;;;;;;68.07;31.90;;;;;;;;;;4986467;28;20068;-86
2022/03/22 02:17:38;;;;;;;71.53;31.38;;;;;;;;;;4983854;28;20417;-85
2022/03/22 02:20:04;;;;;;;73.93;32.00;;;;;;;;;;4986035;28;20029;-86
2022/03/22 02:22:36;;;;;;;74.43;33.00;;;;;;;;;;4985754;28;20132;-85
2022/03/22 02:25:03;;;;;;;79.18;34.30;;;;;;;;;;4987192;28;20033;-86
2022/03/22 02:27:34;;;;;;;65.97;32.22;;;;;;;;;;4988698;28;20077;-85
2022/03/22 02:30:00;;;;;;;68.68;29.80;;;;;;;;;;4985579;28;20049;-85
2022/03/22 02:32:26;;;;;;;69.45;32.53;;;;;;;;;;5000443;28;20113;-85
2022/03/22 02:34:52;;;;;;;69.72;32.25;;;;;;;;;;4986384;28;20490;-85
2022/03/22 02:37:19;;;;;;;70.05;31.73;;;;;;;;;;4987344;28;20022;-85
2022/03/22 02:39:45;;;;;;;55.65;27.98;;;;;;;;;;4985004;28;20693;-85
2022/03/22 02:42:11;;;;;;;62.70;29.25;;;;;;;;;;5005792;28;20049;-86
2022/03/22 02:44:38;;;;;;;67.18;29.77;;;;;;;;;;4987749;28;20049;-86
2022/03/22 02:47:06;;;;;;;60.35;29.73;;;;;;;;;;4983198;28;20429;-85
2022/03/22 02:49:34;;;;;;;64.72;31.08;;;;;;;;;;4980973;28;20049;-84
2022/03/22 02:52:01;;;;;;;69.47;32.42;;;;;;;;;;4986749;28;20040;-83
2022/03/22 02:54:27;;;;;;;64.47;29.92;;;;;;;;;;4981894;28;20126;-83
2022/03/22 02:56:53;;;;;;;64.88;30.60;;;;;;;;;;4986344;28;20825;-84
2022/03/22 02:59:19;;;;;;;64.90;30.30;;;;;;;;;;4988094;28;20026;-84
2022/03/22 03:01:45;;;;;;;63.67;31.63;;;;;;;;;;5001425;28;20411;-83
2022/03/22 03:04:11;;;;;;;68.20;31.95;;;;;;;;;;4997939;28;20488;-83
2022/03/22 03:06:38;;;;;;;67.07;30.40;;;;;;;;;;4985320;28;20038;-83
2022/03/22 03:09:04;;;;;;;74.78;31.63;;;;;;;;;;4981955;28;20096;-84
2022/03/22 03:11:30;;;;;;;72.85;34.05;;;;;;;;;;4988319;28;20061;-84
2022/03/22 03:16:41;;;;;;;72.03;32.78;;;;;;;;;;5001754;28;20089;-83
2022/03/22 03:19:08;;;;;;;66.68;30.88;;;;;;;;;;4998458;28;20091;-83
2022/03/22 03:21:34;;;;;;;65.97;31.38;;;;;;;;;;4982125;28;20025;-84
2022/03/22 03:24:00;;;;;;;75.35;34.30;;;;;;;;;;4982966;28;20033;-84
2022/03/22 03:26:27;;;;;;;65.30;32.22;;;;;;;;;;4998758;28;20410;-84
2022/03/22 03:28:53;;;;;;;72.25;34.97;;;;;;;;;;4985762;28;20044;-83
2022/03/22 03:31:19;;;;;;;76.38;33.33;;;;;;;;;;4999797;28;20038;-83
2022/03/22 03:33:45;;;;;;;74.80;33.95;;;;;;;;;;4981258;28;20064;-84
2022/03/22 03:36:11;;;;;;;69.63;32.35;;;;;;;;;;4998385;28;20037;-83
2022/03/22 03:38:41;;;;;;;64.47;31.75;;;;;;;;;;4995404;28;20062;-83
2022/03/22 03:43:56;;;;;;;65.75;29.63;;;;;;;;;;4999530;28;20500;-83
2022/03/22 03:49:06;;;;;;;69.35;32.20;;;;;;;;;;4999916;28;20079;-84
2022/03/22 03:51:33;;;;;;;67.47;30.65;;;;;;;;;;4998097;28;20037;-83
2022/03/22 03:54:00;;;;;;;67.38;30.52;;;;;;;;;;4979326;28;20120;-84
2022/03/22 03:56:26;;;;;;;59.20;28.70;;;;;;;;;;4995906;28;20053;-84
2022/03/22 03:58:52;;;;;;;72.43;33.20;;;;;;;;;;4994389;28;20531;-84
2022/03/22 04:01:18;;;;;;;69.90;31.80;;;;;;;;;;4993850;28;20018;-84
2022/03/22 04:03:45;;;;;;;74.85;34.30;;;;;;;;;;4982531;28;20062;-84
2022/03/22 04:06:12;;;;;;;72.57;33.45;;;;;;;;;;5000683;28;20028;-84
2022/03/22 04:08:38;;;;;;;69.97;31.52;;;;;;;;;;4980735;28;20025;-83
2022/03/22 04:11:10;;;;;;;70.93;33.83;;;;;;;;;;4983711;28;20066;-84
2022/03/22 04:13:37;;;;;;;61.50;31.02;;;;;;;;;;4980075;28;20045;-84
2022/03/22 04:16:03;;;;;;;74.10;32.30;;;;;;;;;;4986777;28;20172;-84
2022/03/22 04:18:29;;;;;;;70.13;32.03;;;;;;;;;;5000608;28;20441;-84
2022/03/22 04:20:55;;;;;;;75.38;33.42;;;;;;;;;;4977168;28;20036;-84
2022/03/22 04:23:21;;;;;;;67.05;31.83;;;;;;;;;;5000951;28;20041;-83
2022/03/22 04:25:47;;;;;;;69.30;31.42;;;;;;;;;;4984630;28;20395;-84
2022/03/22 04:33:42;;;;;;;73.25;34.53;;;;;;;;;;5004149;28;20504;-83
2022/03/22 04:36:12;;;;;;;67.32;32.75;;;;;;;;;;5000702;28;20030;-83
2022/03/22 04:38:39;;;;;;;78.45;35.85;;;;;;;;;;4984331;28;20030;-84
2022/03/22 04:41:05;;;;;;;78.25;33.13;;;;;;;;;;4987968;28;22692;-84
2022/03/22 04:43:31;;;;;;;66.75;32.72;;;;;;;;;;5002868;28;20109;-84
2022/03/22 04:45:57;;;;;;;73.97;33.50;;;;;;;;;;4986036;28;20030;-83
2022/03/22 04:48:23;;;;;;;77.57;33.95;;;;;;;;;;4998601;28;20516;-83
2022/03/22 04:56:43;;;;;;;68.60;30.55;;;;;;;;;;5000418;28;20030;-84
2022/03/22 04:59:05;;;;;;;71.60;31.58;;;;;;;;;;5002068;28;20334;-84
2022/03/22 05:01:37;;;;;;;80.60;32.45;;;;;;;;;;4990967;28;20518;-84
2022/03/22 05:04:03;;;;;;;68.15;31.98;;;;;;;;;;4983614;28;20371;-84
2022/03/22 05:06:31;;;;;;;77.82;33.40;;;;;;;;;;4987455;28;20124;-84
2022/03/22 05:08:57;;;;;;;70.97;31.00;;;;;;;;;;4981018;28;20041;-84
2022/03/22 05:11:24;;;;;;;63.67;31.80;;;;;;;;;;4981189;28;20049;-83
2022/03/22 05:13:50;;;;;;;66.20;30.92;;;;;;;;;;4984182;28;20041;-83
2022/03/22 05:16:16;;;;;;;76.60;34.35;;;;;;;;;;4963503;28;20041;-84
2022/03/22 05:18:42;;;;;;;74.07;31.67;;;;;;;;;;4980016;28;20387;-84
2022/03/22 05:21:08;;;;;;;71.38;33.47;;;;;;;;;;4964031;28;20034;-84
2022/03/22 05:23:35;;;;;;;71.78;31.98;;;;;;;;;;4969223;28;20070;-83
2022/03/22 05:26:01;;;;;;;69.90;32.42;;;;;;;;;;4966548;28;20041;-84
2022/03/22 05:28:27;;;;;;;76.72;32.30;;;;;;;;;;4965263;28;20495;-84
2022/03/22 05:30:53;;;;;;;70.43;33.17;;;;;;;;;;4967105;28;20041;-84
2022/03/22 05:33:19;;;;;;;72.13;32.30;;;;;;;;;;4982522;28;20166;-84
2022/03/22 05:35:45;;;;;;;73.78;33.53;;;;;;;;;;4967325;28;20026;-83
2022/03/22 05:38:12;;;;;;;73.63;33.95;;;;;;;;;;4965287;28;20042;-83
2022/03/22 05:40:39;;;;;;;77.53;33.80;;;;;;;;;;4978446;28;20030;-83
2022/03/22 05:43:06;;;;;;;71.70;33.58;;;;;;;;;;4980536;28;20433;-83
2022/03/22 05:45:32;;;;;;;70.05;32.50;;;;;;;;;;4962376;28;20556;-83
2022/03/22 05:48:01;;;;;;;77.13;32.88;;;;;;;;;;4981751;28;20069;-84
2022/03/22 05:50:28;;;;;;;71.82;34.00;;;;;;;;;;4978323;28;20031;-83
2022/03/22 05:52:54;;;;;;;71.72;32.42;;;;;;;;;;4964109;28;20552;-84
2022/03/22 05:55:20;;;;;;;68.72;32.03;;;;;;;;;;4980254;28;20561;-84
2022/03/22 05:57:46;;;;;;;86.38;34.22;;;;;;;;;;4984045;28;20509;-84
2022/03/22 06:00:13;;;;;;;68.80;31.75;;;;;;;;;;4980185;28;20765;-83
2022/03/22 06:02:39;;;;;;;64.80;32.05;;;;;;;;;;4979717;28;20552;-84
2022/03/22 06:05:08;;;;;;;69.28;32.42;;;;;;;;;;4960112;28;20023;-84
2022/03/22 06:07:34;;;;;;;67.63;31.80;;;;;;;;;;4966325;28;20029;-84
2022/03/22 06:10:00;;;;;;;69.25;31.75;;;;;;;;;;4976523;28;20030;-84
2022/03/22 06:12:26;;;;;;;74.60;33.08;;;;;;;;;;4998641;28;20413;-83
2022/03/22 06:15:14;;;;;;;80.30;33.97;;;;;;;;;;4986530;28;20442;-84
2022/03/22 06:17:39;;;;;;;65.80;31.00;;;;;;;;;;5000179;28;20172;-84
2022/03/22 06:20:06;;;;;;;66.07;30.00;;;;;;;;;;5002771;28;20591;-84
2022/03/22 06:22:32;;;;;;;64.80;29.40;;;;;;;;;;4984142;28;20029;-84
2022/03/22 06:24:58;;;;;;;65.57;30.27;;;;;;;;;;4982998;28;20556;-84
2022/03/22 06:27:24;;;;;;;69.97;31.33;;;;;;;;;;4984421;28;20030;-84
2022/03/22 06:29:50;;;;;;;73.35;28.90;;;;;;;;;;4985245;28;20515;-84
2022/03/22 06:32:16;;;;;;;67.15;29.70;;;;;;;;;;4985232;28;20046;-83
2022/03/22 06:34:42;;;;;;;71.00;31.60;;;;;;;;;;4991020;28;20595;-84
2022/03/22 06:37:08;;;;;;;66.68;29.90;;;;;;;;;;4981891;28;20126;-84
2022/03/22 06:39:34;;;;;;;58.28;29.02;;;;;;;;;;4983210;28;20423;-83
2022/03/22 06:42:00;;;;;;;66.45;29.90;;;;;;;;;;4987432;28;20034;-84
2022/03/22 06:44:26;;;;;;;68.40;30.25;;;;;;;;;;5000553;28;20038;-84
2022/03/22 06:46:54;;;;;;;65.68;29.95;;;;;;;;;;5001562;28;20065;-83
2022/03/22 06:49:22;;;;;;;60.78;28.38;;;;;;;;;;4999166;28;20038;-83
2022/03/22 06:51:48;;;;;;;62.22;31.48;;;;;;;;;;4987657;28;20617;-82
2022/03/22 06:54:14;;;;;;;55.80;28.50;;;;;;;;;;4988746;28;20049;-84
2022/03/22 06:56:40;;;;;;;66.97;30.83;;;;;;;;;;5002534;28;20061;-84
2022/03/22 06:59:06;;;;;;;66.93;29.17;;;;;;;;;;4982387;28;20088;-84
2022/03/22 07:01:32;;;;;;;62.80;29.58;;;;;;;;;;4983233;28;20030;-84
2022/03/22 07:03:58;;;;;;;62.45;30.77;;;;;;;;;;4983825;28;20033;-84
2022/03/22 07:06:24;;;;;;;63.15;30.67;;;;;;;;;;5004705;28;20038;-84
2022/03/22 07:08:52;;;;;;;60.33;28.83;;;;;;;;;;5002735;28;20033;-84
2022/03/22 07:14:06;;;;;;;58.95;28.17;;;;;;;;;;4983135;28;20544;-83
2022/03/22 07:16:32;;;;;;;70.90;28.50;;;;;;;;;;4964909;28;20958;-84
2022/03/22 07:18:58;;;;;;;63.33;28.98;;;;;;;;;;4962315;28;20080;-84
2022/03/22 07:21:24;;;;;;;59.15;29.30;;;;;;;;;;4981134;28;20506;-84
2022/03/22 07:23:54;;;;;;;58.08;27.70;;;;;;;;;;4966245;28;20121;-84
2022/03/22 07:26:20;;;;;;;61.55;28.80;;;;;;;;;;4965865;28;20772;-84
2022/03/22 07:28:46;;;;;;;63.35;29.17;;;;;;;;;;4968450;28;20023;-86
2022/03/22 07:31:12;;;;;;;58.83;27.27;;;;;;;;;;4984322;28;20030;-85
2022/03/22 07:33:39;;;;;;;58.55;28.73;;;;;;;;;;4986904;28;20034;-87
2022/03/22 07:36:05;;;;;;;61.65;28.55;;;;;;;;;;4964666;28;20433;-86
2022/03/22 07:38:31;;;;;;;54.15;27.02;;;;;;;;;;4964293;28;20026;-86
2022/03/22 07:40:57;;;;;;;52.17;26.90;;;;;;;;;;4963627;28;20129;-86
2022/03/22 07:43:23;;;;;;;62.97;29.77;;;;;;;;;;4982168;28;20644;-86
2022/03/22 07:45:50;;;;;;;58.28;29.52;;;;;;;;;;4959177;28;20049;-85
2022/03/22 07:48:16;;;;;;;58.00;27.90;;;;;;;;;;4965708;28;20386;-86
2022/03/22 07:53:27;;;;;;;60.05;28.95;;;;;;;;;;4976923;28;20612;-86
2022/03/22 07:55:53;;;;;;;59.55;28.45;;;;;;;;;;4966743;28;20105;-86
2022/03/22 07:58:19;;;;;;;55.65;27.17;;;;;;;;;;4976696;28;20030;-85
2022/03/22 08:00:46;;;;;;;55.83;27.92;;;;;;;;;;4978225;28;20079;-86
2022/03/22 08:03:15;;;;;;;59.40;24.77;;;;;;;;;;4980010;28;20050;-85
2022/03/22 08:05:42;;;;;;;51.45;26.08;;;;;;;;;;4966444;28;20043;-85
2022/03/22 08:08:08;;;;;;;54.03;26.98;;;;;;;;;;4963981;28;20070;-85
2022/03/22 08:10:34;;;;;;;48.08;26.98;;;;;;;;;;4976669;28;20479;-85
2022/03/22 08:13:08;;;;;;;55.25;26.00;;;;;;;;;;4967618;28;20038;-85
2022/03/22 08:15:41;;;;;;;46.38;23.77;;;;;;;;;;4962808;28;20703;-85
2022/03/22 08:18:07;;;;;;;51.65;25.65;;;;;;;;;;4962626;28;20034;-85
2022/03/22 08:20:33;;;;;;;46.00;24.77;;;;;;;;;;4980532;28;20030;-86
2022/03/22 08:23:04;;;;;;;49.90;24.75;;;;;;;;;;4959386;28;20063;-85
2022/03/22 08:25:30;;;;;;;52.65;25.98;;;;;;;;;;4981351;28;20034;-85
2022/03/22 08:27:57;;;;;;;46.40;23.60;;;;;;;;;;4974739;28;20958;-86
2022/03/22 08:30:23;;;;;;;49.40;25.45;;;;;;;;;;4964402;28;20094;-85
2022/03/22 08:32:50;;;;;;;51.47;26.13;;;;;;;;;;4962383;28;20030;-85
2022/03/22 08:35:17;;;;;;;50.42;26.92;;;;;;;;;;4975832;28;20034;-86
2022/03/22 08:37:43;;;;;;;46.67;24.98;;;;;;;;;;4978517;28;20490;-85
2022/03/22 08:40:10;;;;;;;47.13;25.85;;;;;;;;;;4956599;28;20639;-85
2022/03/22 08:42:41;;;;;;;45.20;26.30;;;;;;;;;;4979967;28;20510;-86
2022/03/22 08:45:07;;;;;;;52.58;26.92;;;;;;;;;;4970141;28;20639;-85
2022/03/22 08:47:35;;;;;;;41.53;25.40;;;;;;;;;;4979471;28;20066;-85
2022/03/22 08:50:02;;;;;;;46.78;26.50;;;;;;;;;;4972610;28;20070;-85
2022/03/22 08:52:28;;;;;;;51.80;26.67;;;;;;;;;;4960796;28;20022;-86
2022/03/22 08:54:54;;;;;;;51.25;25.60;;;;;;;;;;4970828;28;20046;-85
2022/03/22 08:57:20;;;;;;;53.45;26.13;;;;;;;;;;4961211;28;20045;-85
2022/03/22 08:59:46;;;;;;;51.03;24.92;;;;;;;;;;4959216;28;20027;-85
2022/03/22 09:02:12;;;;;;;47.75;26.23;;;;;;;;;;4962412;28;20414;-85
2022/03/22 09:07:23;;;;;;;45.13;25.02;;;;;;;;;;4977554;28;20472;-85
2022/03/22 09:09:49;;;;;;;55.72;24.55;;;;;;;;;;4959985;28;20038;-85
2022/03/22 09:12:15;;;;;;;44.78;25.30;;;;;;;;;;4972545;28;20125;-85
2022/03/22 09:14:41;;;;;;;45.60;24.30;;;;;;;;;;5000579;28;20070;-85
2022/03/22 09:17:07;;;;;;;43.30;24.38;;;;;;;;;;4997790;28;20117;-85
2022/03/22 09:19:36;;;;;;;45.53;24.58;;;;;;;;;;5002030;28;20800;-85
2022/03/22 09:22:05;;;;;;;43.33;24.73;;;;;;;;;;4984306;28;20473;-85
2022/03/22 09:24:32;;;;;;;59.00;26.25;;;;;;;;;;4987397;28;20034;-85
2022/03/22 09:26:58;;;;;;;47.97;24.38;;;;;;;;;;4989303;28;20833;-85
2022/03/22 09:29:24;;;;;;;46.80;24.60;;;;;;;;;;5002083;28;20400;-85
2022/03/22 09:31:51;;;;;;;43.80;23.80;;;;;;;;;;5000488;28;20178;-86
2022/03/22 09:34:17;;;;;;;49.22;24.00;;;;;;;;;;4998832;28;20031;-85
2022/03/22 09:36:43;;;;;;;43.00;24.88;;;;;;;;;;5002234;28;20018;-86
2022/03/22 09:39:09;;;;;;;44.45;24.67;;;;;;;;;;4987861;28;20841;-85
2022/03/22 09:41:37;;;;;;;43.35;23.67;;;;;;;;;;5000580;28;20347;-86
2022/03/22 09:44:04;;;;;;;53.58;26.05;;;;;;;;;;5001368;28;20038;-86
2022/03/22 09:46:32;;;;;;;40.28;23.98;;;;;;;;;;4997528;28;20061;-86
2022/03/22 09:48:58;;;;;;;43.75;25.15;;;;;;;;;;4997376;28;20509;-86
2022/03/22 09:54:11;;;;;;;50.00;24.73;;;;;;;;;;4997740;28;20041;-85
2022/03/22 09:56:37;;;;;;;41.47;24.77;;;;;;;;;;4984183;28;20037;-86
2022/03/22 09:59:04;;;;;;;43.13;25.27;;;;;;;;;;4981069;28;20579;-86
2022/03/22 10:01:31;;;;;;;49.30;24.92;;;;;;;;;;4978601;28;21258;-86
2022/03/22 10:04:08;;;;;;;40.88;25.30;;;;;;;;;;4984933;28;20038;-86
2022/03/22 10:06:35;;;;;;;38.33;23.75;;;;;;;;;;4984094;28;20026;-86
2022/03/22 10:09:02;;;;;;;44.90;25.38;;;;;;;;;;4981548;28;20045;-86
2022/03/22 10:11:54;;;;;;;42.50;24.95;;;;;;;;;;4983018;28;20034;-85
2022/03/22 10:14:20;;;;;;;41.85;24.17;;;;;;;;;;4980938;28;20133;-86
2022/03/22 10:16:48;;;;;;;38.45;22.52;;;;;;;;;;4986864;28;20045;-85
2022/03/22 10:19:21;;;;;;;44.17;23.50;;;;;;;;;;4986319;28;20085;-86
2022/03/22 10:21:48;;;;;;;44.08;24.52;;;;;;;;;;4981900;28;20068;-86
2022/03/22 10:24:17;;;;;;;39.42;23.42;;;;;;;;;;4998739;28;20029;-86
2022/03/22 10:26:46;;;;;;;43.47;24.25;;;;;;;;;;4995574;28;20041;-86
2022/03/22 10:29:13;;;;;;;39.30;23.42;;;;;;;;;;4997541;28;20095;-86
2022/03/22 10:31:40;;;;;;;40.30;24.10;;;;;;;;;;4987467;28;20022;-86
2022/03/22 10:34:07;;;;;;;43.15;23.98;;;;;;;;;;5000900;28;20034;-86
2022/03/22 10:36:35;;;;;;;40.58;23.40;;;;;;;;;;4995960;28;20038;-86
2022/03/22 10:39:02;;;;;;;40.97;24.27;;;;;;;;;;5001513;28;20038;-86
2022/03/22 10:41:29;;;;;;;42.45;24.40;;;;;;;;;;4998879;28;20065;-86
2022/03/22 10:44:24;;;;;;;39.70;23.30;;;;;;;;;;4984805;28;20387;-85
2022/03/22 10:46:50;;;;;;;48.67;24.60;;;;;;;;;;4976379;28;20041;-86
2022/03/22 10:49:18;;;;;;;42.55;23.45;;;;;;;;;;4985142;28;20072;-86
2022/03/22 10:51:52;;;;;;;43.28;22.60;;;;;;;;;;4984463;28;20776;-86
2022/03/22 10:54:19;;;;;;;36.63;22.75;;;;;;;;;;4993702;28;20026;-85
2022/03/22 10:56:47;;;;;;;38.38;23.23;;;;;;;;;;4998506;28;20026;-86
2022/03/22 10:59:14;;;;;;;44.03;23.50;;;;;;;;;;4985191;28;20658;-86
2022/03/22 11:01:43;;;;;;;45.38;23.85;;;;;;;;;;5000196;28;20045;-86
2022/03/22 11:04:10;;;;;;;39.78;23.52;;;;;;;;;;4982456;28;20204;-86
2022/03/22 11:06:38;;;;;;;37.85;23.10;;;;;;;;;;4989430;28;20034;-86
2022/03/22 11:09:04;;;;;;;40.20;24.30;;;;;;;;;;4979597;28;20030;-86
2022/03/22 11:11:31;;;;;;;42.10;23.83;;;;;;;;;;4979937;28;20046;-86
2022/03/22 11:14:04;;;;;;;36.88;23.20;;;;;;;;;;4980508;28;20505;-86
2022/03/22 11:16:31;;;;;;;43.50;24.02;;;;;;;;;;4979040;28;20018;-86
2022/03/22 11:19:01;;;;;;;45.53;24.35;;;;;;;;;;4977539;28;20223;-85
2022/03/22 11:21:28;;;;;;;43.40;24.17;;;;;;;;;;4994696;28;20713;-85
2022/03/22 11:24:14;;;;;;;39.13;23.15;;;;;;;;;;4984859;28;20580;-85
2022/03/22 11:26:45;;;;;;;46.90;24.42;;;;;;;;;;4981628;28;20062;-86
2022/03/22 11:29:12;;;;;;;39.97;23.55;;;;;;;;;;4992029;28;20050;-86
2022/03/22 11:31:38;;;;;;;37.55;24.60;;;;;;;;;;4979899;28;20149;-87
2022/03/22 11:34:08;;;;;;;44.00;23.88;;;;;;;;;;4978588;28;20177;-85
2022/03/22 11:36:43;;;;;;;44.67;25.15;;;;;;;;;;4996051;28;20485;-84
2022/03/22 11:39:09;;;;;;;41.95;24.23;;;;;;;;;;4990322;28;20038;-83
2022/03/22 11:44:36;;;;;;;36.80;22.35;;;;;;;;;;5001625;28;20041;-84
2022/03/22 11:47:05;;;;;;;43.65;25.20;;;;;;;;;;4979672;28;20862;-84
2022/03/22 11:49:32;;;;;;;42.38;23.98;;;;;;;;;;4995161;28;20046;-84
2022/03/22 11:51:59;;;;;;;40.55;24.20;;;;;;;;;;4984105;28;20045;-84
2022/03/22 11:54:27;;;;;;;35.58;22.60;;;;;;;;;;4979816;28;20064;-85
2022/03/22 11:56:56;;;;;;;39.58;24.05;;;;;;;;;;4997524;28;20042;-84
2022/03/22 11:59:23;;;;;;;41.83;22.70;;;;;;;;;;5000288;28;20040;-85
2022/03/22 12:02:03;;;;;;;36.97;22.52;;;;;;;;;;4994707;28;20026;-84
2022/03/22 12:04:34;;;;;;;42.53;24.00;;;;;;;;;;4980825;28;20649;-84
2022/03/22 12:07:01;;;;;;;42.03;22.80;;;;;;;;;;4977755;28;21043;-84
2022/03/22 12:09:27;;;;;;;42.38;23.70;;;;;;;;;;4981680;28;20629;-84
2022/03/22 12:12:01;;;;;;;35.85;21.77;;;;;;;;;;4983719;28;20023;-84
2022/03/22 12:14:28;;;;;;;42.20;22.33;;;;;;;;;;4998159;28;20087;-84
2022/03/22 12:16:56;;;;;;;41.15;22.13;;;;;;;;;;4999604;28;20168;-84
2022/03/22 12:19:30;;;;;;;40.35;23.13;;;;;;;;;;4979120;28;20030;-85
2022/03/22 12:21:58;;;;;;;42.08;21.35;;;;;;;;;;4997307;28;20033;-84
2022/03/22 12:24:24;;;;;;;41.45;22.00;;;;;;;;;;4997062;28;20744;-85
2022/03/22 12:26:51;;;;;;;42.50;23.50;;;;;;;;;;4997163;28;20054;-84
2022/03/22 12:29:18;;;;;;;37.95;22.38;;;;;;;;;;4984425;28;20061;-84
2022/03/22 12:31:53;;;;;;;40.33;21.98;;;;;;;;;;4994600;28;20437;-84
2022/03/22 12:34:20;;;;;;;40.40;22.80;;;;;;;;;;4998060;28;20069;-84
2022/03/22 12:36:46;;;;;;;35.92;21.13;;;;;;;;;;4984802;28;20404;-84
2022/03/22 12:39:12;;;;;;;43.83;22.80;;;;;;;;;;4975817;28;20022;-84
2022/03/22 12:41:39;;;;;;;41.63;22.25;;;;;;;;;;4980191;28;20073;-84
2022/03/22 12:44:05;;;;;;;43.17;22.27;;;;;;;;;;4980300;28;20080;-84
2022/03/22 12:46:32;;;;;;;42.03;22.20;;;;;;;;;;4980028;28;20457;-84
2022/03/22 12:48:58;;;;;;;41.40;22.52;;;;;;;;;;4981103;28;20061;-84
2022/03/22 12:51:25;;;;;;;39.95;23.60;;;;;;;;;;4978083;28;20042;-84
2022/03/22 12:53:54;;;;;;;44.97;22.33;;;;;;;;;;4984104;28;20030;-84
2022/03/22 12:56:21;;;;;;;42.15;23.65;;;;;;;;;;4984848;28;20033;-84
2022/03/22 12:58:49;;;;;;;37.50;22.65;;;;;;;;;;4986194;28;20029;-84
2022/03/22 13:01:15;;;;;;;35.80;20.30;;;;;;;;;;4977753;28;20032;-84
2022/03/22 13:03:42;;;;;;;39.92;21.13;;;;;;;;;;4979096;28;20084;-85
2022/03/22 13:06:08;;;;;;;39.53;21.48;;;;;;;;;;4999840;28;20118;-84
2022/03/22 13:11:26;;;;;;;41.95;22.50;;;;;;;;;;5001888;28;20151;-84
2022/03/22 13:16:38;;;;;;;37.10;20.67;;;;;;;;;;4998895;28;20571;-84
2022/03/22 13:19:06;;;;;;;40.72;20.48;;;;;;;;;;4983241;28;20037;-84
2022/03/22 13:21:33;;;;;;;40.88;20.92;;;;;;;;;;4984118;28;20034;-84
2022/03/22 13:24:00;;;;;;;34.38;21.20;;;;;;;;;;4983879;28;20102;-84
2022/03/22 13:26:27;;;;;;;35.00;20.05;;;;;;;;;;4998458;28;20037;-84
2022/03/22 13:28:53;;;;;;;44.63;21.20;;;;;;;;;;4983100;28;20073;-84
2022/03/22 13:31:25;;;;;;;34.10;19.10;;;;;;;;;;4976689;28;20458;-84
2022/03/22 13:33:55;;;;;;;35.65;19.13;;;;;;;;;;4987023;28;20026;-84
2022/03/22 13:36:21;;;;;;;37.50;20.05;;;;;;;;;;4979395;28;20653;-84
2022/03/22 13:38:52;;;;;;;40.75;20.05;;;;;;;;;;4987516;28;20025;-84
2022/03/22 13:41:25;;;;;;;27.77;16.17;;;;;;;;;;4985309;28;20026;-84
2022/03/22 13:43:51;;;;;;;26.45;15.55;;;;;;;;;;4999864;28;20133;-83
2022/03/22 13:46:17;;;;;;;35.60;17.70;;;;;;;;;;5000229;28;20038;-84
2022/03/22 13:48:53;;;;;;;25.67;14.82;;;;;;;;;;4995216;28;20049;-83
2022/03/22 13:51:18;;;;;;;;;;;;;;;;;;4982027;28;20042;-83
2022/03/22 13:53:45;;;;;;;29.00;16.17;;;;;;;;;;4996140;28;20675;-84
2022/03/22 13:56:12;;;;;;;35.95;17.95;;;;;;;;;;4984609;28;20026;-84
2022/03/22 13:58:42;;;;;;;43.42;20.50;;;;;;;;;;4999171;28;22012;-84
2022/03/22 14:01:13;;;;;;;32.30;17.85;;;;;;;;;;4984417;28;20096;-83
2022/03/22 14:03:39;;;;;;;35.03;18.58;;;;;;;;;;4984694;28;20034;-82
2022/03/22 14:06:05;;;;;;;23.60;11.00;;;;;;;;;;4987274;28;20136;-82
2022/03/22 14:08:31;;;;;;;29.33;14.77;;;;;;;;;;5004711;28;20065;-82
2022/03/22 14:10:58;;;;;;;26.17;14.35;;;;;;;;;;4985691;28;20493;-82
2022/03/22 14:13:28;;;;;;;29.27;15.55;;;;;;;;;;4975542;28;20129;-84
2022/03/22 14:15:55;;;;;;;26.10;16.30;;;;;;;;;;4969079;28;20417;-84
2022/03/22 14:18:23;;;;;;;32.97;17.17;;;;;;;;;;4987267;28;20036;-84
2022/03/22 14:20:50;;;;;;;33.20;16.92;;;;;;;;;;4991710;28;20014;-84
2022/03/22 14:23:17;;;;;;;31.70;16.65;;;;;;;;;;4990190;28;20209;-84
2022/03/22 14:25:43;;;;;;;22.60;12.60;;;;;;;;;;4967758;28;20497;-84
2022/03/22 14:28:09;;;;;;;29.73;15.50;;;;;;;;;;4982263;28;20082;-84
2022/03/22 14:30:37;;;;;;;33.33;17.05;;;;;;;;;;4984477;28;20037;-84
2022/03/22 14:33:05;;;;;;;29.70;16.70;;;;;;;;;;4961863;28;20473;-84
2022/03/22 14:38:28;;;;;;;29.08;17.27;;;;;;;;;;4979544;28;20061;-84
2022/03/22 14:40:56;;;;;;;30.65;18.23;;;;;;;;;;4966081;28;20490;-84
2022/03/22 14:43:23;;;;;;;27.20;16.88;;;;;;;;;;4954183;28;20071;-84
2022/03/22 14:45:49;;;;;;;28.23;16.20;;;;;;;;;;4958219;28;20651;-84
2022/03/22 14:48:19;;;;;;;30.52;16.23;;;;;;;;;;4975874;28;20169;-83
2022/03/22 14:50:45;;;;;;;34.55;16.38;;;;;;;;;;4963618;28;20094;-84
2022/03/22 14:58:47;;;;;;;30.42;16.70;;;;;;;;;;4982761;28;20112;-84
2022/03/22 14:58:53;;;;;;;36.13;17.95;;;;;;;;;;4981540;28;20068;-84
2022/03/22 15:01:19;;;;;;;28.42;16.33;;;;;;;;;;4976354;28;20073;-83
2022/03/22 15:03:47;;;;;;;29.88;17.73;;;;;;;;;;4966433;28;20398;-83
2022/03/22 15:06:14;;;;;;;27.25;17.10;;;;;;;;;;4959642;28;20583;-84
2022/03/22 15:08:43;;;;;;;36.97;17.77;;;;;;;;;;4980444;28;20037;-84
2022/03/22 15:11:09;;;;;;;30.10;15.57;;;;;;;;;;4981470;28;20038;-84